sensor_id;sensor_type;location;lat;lon;timestamp;P1;durP1;ratioP1;P2;durP2;ratioP2
13445;SDS011;6795;51.232;3.764;2023-12-07T00:01:43;355.83;;;69.67;;
13445;SDS011;6795;51.232;3.764;2023-12-07T00:04:12;340.87;;;67.17;;
13445;SDS011;6795;51.232;3.764;2023-12-07T00:06:41;297.60;;;66.37;;
13445;SDS011;6795;51.232;3.764;2023-12-07T00:09:09;289.10;;;62.00;;
13445;SDS011;6795;51.232;3.764;2023-12-07T00:11:38;376.77;;;70.13;;
13445;SDS011;6795;51.232;3.764;2023-12-07T00:14:07;495.70;;;79.33;;
13445;SDS011;6795;51.232;3.764;2023-12-07T00:16:36;588.67;;;81.10;;
13445;SDS011;6795;51.232;3.764;2023-12-07T00:19:05;569.57;;;86.83;;
13445;SDS011;6795;51.232;3.764;2023-12-07T00:21:33;487.20;;;77.90;;
13445;SDS011;6795;51.232;3.764;2023-12-07T00:24:02;493.97;;;74.00;;
13445;SDS011;6795;51.232;3.764;2023-12-07T00:26:31;622.77;;;85.13;;
13445;SDS011;6795;51.232;3.764;2023-12-07T00:28:59;498.40;;;81.37;;
13445;SDS011;6795;51.232;3.764;2023-12-07T00:31:29;627.20;;;90.40;;
13445;SDS011;6795;51.232;3.764;2023-12-07T00:33:58;546.13;;;81.53;;
13445;SDS011;6795;51.232;3.764;2023-12-07T00:36:27;482.13;;;83.27;;
13445;SDS011;6795;51.232;3.764;2023-12-07T00:38:55;468.77;;;83.10;;
13445;SDS011;6795;51.232;3.764;2023-12-07T00:41:24;467.50;;;81.63;;
13445;SDS011;6795;51.232;3.764;2023-12-07T00:43:52;403.60;;;69.63;;
13445;SDS011;6795;51.232;3.764;2023-12-07T00:46:21;503.03;;;74.57;;
13445;SDS011;6795;51.232;3.764;2023-12-07T00:48:51;416.63;;;71.90;;
13445;SDS011;6795;51.232;3.764;2023-12-07T00:51:20;471.97;;;74.57;;
13445;SDS011;6795;51.232;3.764;2023-12-07T00:53:48;529.93;;;80.10;;
13445;SDS011;6795;51.232;3.764;2023-12-07T00:56:17;445.03;;;74.20;;
13445;SDS011;6795;51.232;3.764;2023-12-07T00:58:46;450.10;;;73.03;;
13445;SDS011;6795;51.232;3.764;2023-12-07T01:01:15;418.93;;;74.13;;
13445;SDS011;6795;51.232;3.764;2023-12-07T01:03:44;448.67;;;72.13;;
13445;SDS011;6795;51.232;3.764;2023-12-07T01:06:14;517.60;;;74.37;;
13445;SDS011;6795;51.232;3.764;2023-12-07T01:08:43;486.83;;;69.30;;
13445;SDS011;6795;51.232;3.764;2023-12-07T01:11:12;408.23;;;64.33;;
13445;SDS011;6795;51.232;3.764;2023-12-07T01:13:40;485.50;;;70.20;;
13445;SDS011;6795;51.232;3.764;2023-12-07T01:16:09;421.80;;;68.97;;
13445;SDS011;6795;51.232;3.764;2023-12-07T01:18:38;456.30;;;70.77;;
13445;SDS011;6795;51.232;3.764;2023-12-07T01:21:07;453.17;;;68.10;;
13445;SDS011;6795;51.232;3.764;2023-12-07T01:23:37;462.63;;;67.73;;
13445;SDS011;6795;51.232;3.764;2023-12-07T01:26:06;475.77;;;65.30;;
13445;SDS011;6795;51.232;3.764;2023-12-07T01:28:34;369.03;;;59.37;;
13445;SDS011;6795;51.232;3.764;2023-12-07T01:31:03;398.20;;;60.43;;
13445;SDS011;6795;51.232;3.764;2023-12-07T01:33:32;396.87;;;62.50;;
13445;SDS011;6795;51.232;3.764;2023-12-07T01:36:01;353.27;;;58.87;;
13445;SDS011;6795;51.232;3.764;2023-12-07T01:38:29;333.57;;;55.23;;
13445;SDS011;6795;51.232;3.764;2023-12-07T01:40:59;373.47;;;57.27;;
13445;SDS011;6795;51.232;3.764;2023-12-07T01:43:28;431.13;;;57.33;;
13445;SDS011;6795;51.232;3.764;2023-12-07T01:45:57;365.73;;;54.50;;
13445;SDS011;6795;51.232;3.764;2023-12-07T01:48:26;360.40;;;52.57;;
13445;SDS011;6795;51.232;3.764;2023-12-07T01:50:56;322.33;;;57.00;;
13445;SDS011;6795;51.232;3.764;2023-12-07T01:53:25;333.47;;;50.17;;
13445;SDS011;6795;51.232;3.764;2023-12-07T01:55:55;273.30;;;49.53;;
13445;SDS011;6795;51.232;3.764;2023-12-07T01:58:25;353.07;;;54.30;;
13445;SDS011;6795;51.232;3.764;2023-12-07T02:00:53;344.57;;;49.87;;
13445;SDS011;6795;51.232;3.764;2023-12-07T02:03:22;325.27;;;52.63;;
13445;SDS011;6795;51.232;3.764;2023-12-07T02:05:51;372.50;;;54.93;;
13445;SDS011;6795;51.232;3.764;2023-12-07T02:08:20;379.00;;;52.90;;
13445;SDS011;6795;51.232;3.764;2023-12-07T02:10:49;342.63;;;50.27;;
13445;SDS011;6795;51.232;3.764;2023-12-07T02:13:19;208.70;;;38.73;;
13445;SDS011;6795;51.232;3.764;2023-12-07T02:15:49;318.13;;;48.30;;
13445;SDS011;6795;51.232;3.764;2023-12-07T02:18:19;226.97;;;41.83;;
13445;SDS011;6795;51.232;3.764;2023-12-07T02:20:52;216.93;;;38.73;;
13445;SDS011;6795;51.232;3.764;2023-12-07T02:23:23;245.77;;;39.50;;
13445;SDS011;6795;51.232;3.764;2023-12-07T02:26:11;240.20;;;41.10;;
13445;SDS011;6795;51.232;3.764;2023-12-07T02:28:43;281.67;;;45.07;;
13445;SDS011;6795;51.232;3.764;2023-12-07T02:31:11;273.57;;;45.07;;
13445;SDS011;6795;51.232;3.764;2023-12-07T02:33:40;235.80;;;39.20;;
13445;SDS011;6795;51.232;3.764;2023-12-07T02:36:09;276.70;;;40.40;;
13445;SDS011;6795;51.232;3.764;2023-12-07T02:38:37;322.80;;;45.53;;
13445;SDS011;6795;51.232;3.764;2023-12-07T02:41:07;322.13;;;44.87;;
13445;SDS011;6795;51.232;3.764;2023-12-07T02:43:37;285.17;;;43.37;;
13445;SDS011;6795;51.232;3.764;2023-12-07T02:46:07;268.30;;;41.60;;
13445;SDS011;6795;51.232;3.764;2023-12-07T02:48:36;281.17;;;41.43;;
13445;SDS011;6795;51.232;3.764;2023-12-07T02:51:04;170.30;;;27.07;;
13445;SDS011;6795;51.232;3.764;2023-12-07T02:53:33;237.47;;;38.13;;
13445;SDS011;6795;51.232;3.764;2023-12-07T02:56:02;220.20;;;36.73;;
13445;SDS011;6795;51.232;3.764;2023-12-07T02:58:31;272.83;;;46.37;;
13445;SDS011;6795;51.232;3.764;2023-12-07T03:00:59;240.80;;;41.80;;
13445;SDS011;6795;51.232;3.764;2023-12-07T03:03:29;265.53;;;45.13;;
13445;SDS011;6795;51.232;3.764;2023-12-07T03:05:58;237.70;;;42.03;;
13445;SDS011;6795;51.232;3.764;2023-12-07T03:08:28;239.27;;;41.30;;
13445;SDS011;6795;51.232;3.764;2023-12-07T03:10:57;302.23;;;47.53;;
13445;SDS011;6795;51.232;3.764;2023-12-07T03:13:25;269.13;;;48.20;;
13445;SDS011;6795;51.232;3.764;2023-12-07T03:15:54;325.90;;;51.47;;
13445;SDS011;6795;51.232;3.764;2023-12-07T03:18:22;221.10;;;44.37;;
13445;SDS011;6795;51.232;3.764;2023-12-07T03:20:53;254.30;;;47.47;;
13445;SDS011;6795;51.232;3.764;2023-12-07T03:23:21;179.73;;;30.93;;
13445;SDS011;6795;51.232;3.764;2023-12-07T03:25:52;197.13;;;44.00;;
13445;SDS011;6795;51.232;3.764;2023-12-07T03:28:22;176.60;;;38.73;;
13445;SDS011;6795;51.232;3.764;2023-12-07T03:30:50;209.30;;;44.50;;
13445;SDS011;6795;51.232;3.764;2023-12-07T03:33:19;214.37;;;44.70;;
13445;SDS011;6795;51.232;3.764;2023-12-07T03:35:47;179.90;;;32.00;;
13445;SDS011;6795;51.232;3.764;2023-12-07T03:38:18;186.60;;;41.03;;
13445;SDS011;6795;51.232;3.764;2023-12-07T03:40:46;185.10;;;35.80;;
13445;SDS011;6795;51.232;3.764;2023-12-07T03:43:16;203.77;;;38.03;;
13445;SDS011;6795;51.232;3.764;2023-12-07T03:45:45;153.47;;;28.63;;
13445;SDS011;6795;51.232;3.764;2023-12-07T03:48:13;198.20;;;41.37;;
13445;SDS011;6795;51.232;3.764;2023-12-07T03:50:42;186.40;;;41.63;;
13445;SDS011;6795;51.232;3.764;2023-12-07T03:53:11;209.50;;;46.33;;
13445;SDS011;6795;51.232;3.764;2023-12-07T03:55:41;206.70;;;49.63;;
13445;SDS011;6795;51.232;3.764;2023-12-07T03:58:10;221.20;;;48.33;;
13445;SDS011;6795;51.232;3.764;2023-12-07T04:00:40;222.10;;;50.33;;
13445;SDS011;6795;51.232;3.764;2023-12-07T04:03:08;242.83;;;50.43;;
13445;SDS011;6795;51.232;3.764;2023-12-07T04:05:37;245.97;;;52.83;;
13445;SDS011;6795;51.232;3.764;2023-12-07T04:08:06;300.20;;;66.40;;
13445;SDS011;6795;51.232;3.764;2023-12-07T04:10:34;304.23;;;66.03;;
13445;SDS011;6795;51.232;3.764;2023-12-07T04:13:04;319.03;;;69.97;;
13445;SDS011;6795;51.232;3.764;2023-12-07T04:15:33;344.40;;;75.47;;
13445;SDS011;6795;51.232;3.764;2023-12-07T04:18:02;288.97;;;61.13;;
13445;SDS011;6795;51.232;3.764;2023-12-07T04:20:31;301.43;;;78.23;;
13445;SDS011;6795;51.232;3.764;2023-12-07T04:22:59;326.67;;;84.97;;
13445;SDS011;6795;51.232;3.764;2023-12-07T04:25:28;312.13;;;84.77;;
13445;SDS011;6795;51.232;3.764;2023-12-07T04:27:57;254.40;;;62.13;;
13445;SDS011;6795;51.232;3.764;2023-12-07T04:30:27;282.27;;;73.27;;
13445;SDS011;6795;51.232;3.764;2023-12-07T04:32:55;270.43;;;70.73;;
13445;SDS011;6795;51.232;3.764;2023-12-07T04:35:24;266.10;;;75.13;;
13445;SDS011;6795;51.232;3.764;2023-12-07T04:37:53;263.63;;;67.33;;
13445;SDS011;6795;51.232;3.764;2023-12-07T04:40:22;252.00;;;57.23;;
13445;SDS011;6795;51.232;3.764;2023-12-07T04:42:50;328.40;;;76.67;;
13445;SDS011;6795;51.232;3.764;2023-12-07T04:45:19;378.07;;;95.93;;
13445;SDS011;6795;51.232;3.764;2023-12-07T04:47:49;346.40;;;82.47;;
13445;SDS011;6795;51.232;3.764;2023-12-07T04:50:18;282.30;;;65.00;;
13445;SDS011;6795;51.232;3.764;2023-12-07T04:52:47;339.43;;;77.60;;
13445;SDS011;6795;51.232;3.764;2023-12-07T04:55:15;233.27;;;49.67;;
13445;SDS011;6795;51.232;3.764;2023-12-07T04:57:44;264.40;;;53.70;;
13445;SDS011;6795;51.232;3.764;2023-12-07T05:00:13;244.80;;;56.53;;
13445;SDS011;6795;51.232;3.764;2023-12-07T05:02:42;247.67;;;50.77;;
13445;SDS011;6795;51.232;3.764;2023-12-07T05:05:12;225.80;;;39.90;;
13445;SDS011;6795;51.232;3.764;2023-12-07T05:07:41;247.50;;;50.33;;
13445;SDS011;6795;51.232;3.764;2023-12-07T05:10:09;221.37;;;52.77;;
13445;SDS011;6795;51.232;3.764;2023-12-07T05:12:38;225.37;;;57.10;;
13445;SDS011;6795;51.232;3.764;2023-12-07T05:15:07;220.70;;;55.83;;
13445;SDS011;6795;51.232;3.764;2023-12-07T05:17:36;212.87;;;55.00;;
13445;SDS011;6795;51.232;3.764;2023-12-07T05:20:05;227.37;;;53.63;;
13445;SDS011;6795;51.232;3.764;2023-12-07T05:22:35;218.97;;;54.87;;
13445;SDS011;6795;51.232;3.764;2023-12-07T05:25:05;225.57;;;51.40;;
13445;SDS011;6795;51.232;3.764;2023-12-07T05:27:33;209.93;;;55.57;;
13445;SDS011;6795;51.232;3.764;2023-12-07T05:30:02;190.80;;;48.50;;
13445;SDS011;6795;51.232;3.764;2023-12-07T05:32:31;166.83;;;46.30;;
13445;SDS011;6795;51.232;3.764;2023-12-07T05:34:59;187.13;;;49.37;;
13445;SDS011;6795;51.232;3.764;2023-12-07T05:37:27;158.77;;;45.20;;
13445;SDS011;6795;51.232;3.764;2023-12-07T05:39:57;138.07;;;37.47;;
13445;SDS011;6795;51.232;3.764;2023-12-07T05:42:26;171.87;;;44.93;;
13445;SDS011;6795;51.232;3.764;2023-12-07T05:44:54;151.23;;;45.10;;
13445;SDS011;6795;51.232;3.764;2023-12-07T05:47:22;147.03;;;43.47;;
13445;SDS011;6795;51.232;3.764;2023-12-07T05:49:51;127.73;;;40.27;;
13445;SDS011;6795;51.232;3.764;2023-12-07T05:52:19;129.90;;;40.90;;
13445;SDS011;6795;51.232;3.764;2023-12-07T05:54:47;135.57;;;44.67;;
13445;SDS011;6795;51.232;3.764;2023-12-07T05:57:17;134.47;;;42.20;;
13445;SDS011;6795;51.232;3.764;2023-12-07T05:59:45;126.70;;;41.83;;
13445;SDS011;6795;51.232;3.764;2023-12-07T06:02:14;118.17;;;40.93;;
13445;SDS011;6795;51.232;3.764;2023-12-07T06:04:42;116.73;;;42.83;;
13445;SDS011;6795;51.232;3.764;2023-12-07T06:07:11;111.37;;;40.57;;
13445;SDS011;6795;51.232;3.764;2023-12-07T06:09:40;113.73;;;40.87;;
13445;SDS011;6795;51.232;3.764;2023-12-07T06:12:08;112.17;;;40.57;;
13445;SDS011;6795;51.232;3.764;2023-12-07T06:14:38;122.27;;;39.93;;
13445;SDS011;6795;51.232;3.764;2023-12-07T06:17:06;115.47;;;39.57;;
13445;SDS011;6795;51.232;3.764;2023-12-07T06:19:35;114.20;;;39.60;;
13445;SDS011;6795;51.232;3.764;2023-12-07T06:22:03;119.40;;;39.23;;
13445;SDS011;6795;51.232;3.764;2023-12-07T06:24:32;110.50;;;37.37;;
13445;SDS011;6795;51.232;3.764;2023-12-07T06:27:02;118.17;;;41.93;;
13445;SDS011;6795;51.232;3.764;2023-12-07T06:29:30;118.00;;;40.57;;
13445;SDS011;6795;51.232;3.764;2023-12-07T06:32:00;119.10;;;42.00;;
13445;SDS011;6795;51.232;3.764;2023-12-07T06:34:30;112.87;;;43.20;;
13445;SDS011;6795;51.232;3.764;2023-12-07T06:36:58;138.93;;;49.30;;
13445;SDS011;6795;51.232;3.764;2023-12-07T06:39:27;126.63;;;44.47;;
13445;SDS011;6795;51.232;3.764;2023-12-07T06:41:55;106.97;;;41.27;;
13445;SDS011;6795;51.232;3.764;2023-12-07T06:44:26;108.20;;;39.37;;
13445;SDS011;6795;51.232;3.764;2023-12-07T06:46:54;102.90;;;29.70;;
13445;SDS011;6795;51.232;3.764;2023-12-07T06:49:24;110.97;;;42.37;;
13445;SDS011;6795;51.232;3.764;2023-12-07T06:52:08;109.43;;;42.00;;
13445;SDS011;6795;51.232;3.764;2023-12-07T06:54:37;115.33;;;41.03;;
13445;SDS011;6795;51.232;3.764;2023-12-07T06:57:06;117.23;;;43.17;;
13445;SDS011;6795;51.232;3.764;2023-12-07T06:59:34;110.43;;;40.63;;
13445;SDS011;6795;51.232;3.764;2023-12-07T07:02:03;96.57;;;36.60;;
13445;SDS011;6795;51.232;3.764;2023-12-07T07:04:33;108.13;;;40.37;;
13445;SDS011;6795;51.232;3.764;2023-12-07T07:07:01;117.00;;;44.73;;
13445;SDS011;6795;51.232;3.764;2023-12-07T07:09:30;144.20;;;56.97;;
13445;SDS011;6795;51.232;3.764;2023-12-07T07:11:58;154.23;;;63.17;;
13445;SDS011;6795;51.232;3.764;2023-12-07T07:14:28;171.47;;;65.07;;
13445;SDS011;6795;51.232;3.764;2023-12-07T07:16:56;175.63;;;70.37;;
13445;SDS011;6795;51.232;3.764;2023-12-07T07:19:24;159.33;;;65.30;;
13445;SDS011;6795;51.232;3.764;2023-12-07T07:21:54;126.70;;;49.33;;
13445;SDS011;6795;51.232;3.764;2023-12-07T07:24:22;105.17;;;39.67;;
13445;SDS011;6795;51.232;3.764;2023-12-07T07:26:51;99.43;;;28.47;;
13445;SDS011;6795;51.232;3.764;2023-12-07T07:29:19;87.40;;;34.53;;
13445;SDS011;6795;51.232;3.764;2023-12-07T07:31:47;100.97;;;39.90;;
13445;SDS011;6795;51.232;3.764;2023-12-07T07:34:16;100.60;;;29.37;;
13445;SDS011;6795;51.232;3.764;2023-12-07T07:36:45;104.80;;;31.17;;
13445;SDS011;6795;51.232;3.764;2023-12-07T07:39:14;92.73;;;27.20;;
13445;SDS011;6795;51.232;3.764;2023-12-07T07:41:43;91.80;;;32.83;;
13445;SDS011;6795;51.232;3.764;2023-12-07T07:44:11;110.27;;;36.13;;
13445;SDS011;6795;51.232;3.764;2023-12-07T07:46:40;105.97;;;30.67;;
13445;SDS011;6795;51.232;3.764;2023-12-07T07:49:09;96.80;;;31.97;;
13445;SDS011;6795;51.232;3.764;2023-12-07T07:51:37;124.33;;;37.87;;
13445;SDS011;6795;51.232;3.764;2023-12-07T07:54:06;136.17;;;52.67;;
13445;SDS011;6795;51.232;3.764;2023-12-07T07:56:36;114.10;;;42.00;;
13445;SDS011;6795;51.232;3.764;2023-12-07T07:59:05;95.77;;;38.17;;
13445;SDS011;6795;51.232;3.764;2023-12-07T08:01:33;100.53;;;41.03;;
13445;SDS011;6795;51.232;3.764;2023-12-07T08:04:01;98.90;;;39.77;;
13445;SDS011;6795;51.232;3.764;2023-12-07T08:06:31;89.07;;;37.53;;
13445;SDS011;6795;51.232;3.764;2023-12-07T08:09:03;83.80;;;35.53;;
13445;SDS011;6795;51.232;3.764;2023-12-07T08:11:31;91.80;;;38.20;;
13445;SDS011;6795;51.232;3.764;2023-12-07T08:14:00;101.77;;;41.77;;
13445;SDS011;6795;51.232;3.764;2023-12-07T08:16:28;93.03;;;37.93;;
13445;SDS011;6795;51.232;3.764;2023-12-07T08:18:57;103.33;;;42.03;;
13445;SDS011;6795;51.232;3.764;2023-12-07T08:25:47;104.50;;;47.63;;
13445;SDS011;6795;51.232;3.764;2023-12-07T08:32:18;106.93;;;43.87;;
13445;SDS011;6795;51.232;3.764;2023-12-07T08:38:48;83.23;;;39.00;;
13445;SDS011;6795;51.232;3.764;2023-12-07T08:45:28;76.90;;;36.33;;
13445;SDS011;6795;51.232;3.764;2023-12-07T08:52:00;83.23;;;37.10;;
13445;SDS011;6795;51.232;3.764;2023-12-07T09:03:03;82.30;;;35.50;;
13445;SDS011;6795;51.232;3.764;2023-12-07T09:13:14;70.43;;;32.77;;
13445;SDS011;6795;51.232;3.764;2023-12-07T09:18:58;74.30;;;33.47;;
13445;SDS011;6795;51.232;3.764;2023-12-07T09:21:26;66.83;;;33.37;;
13445;SDS011;6795;51.232;3.764;2023-12-07T09:23:55;72.07;;;33.47;;
13445;SDS011;6795;51.232;3.764;2023-12-07T09:26:23;68.80;;;34.30;;
13445;SDS011;6795;51.232;3.764;2023-12-07T09:28:53;76.93;;;26.00;;
13445;SDS011;6795;51.232;3.764;2023-12-07T09:31:21;69.63;;;31.57;;
13445;SDS011;6795;51.232;3.764;2023-12-07T09:33:50;70.57;;;32.97;;
13445;SDS011;6795;51.232;3.764;2023-12-07T09:36:20;61.00;;;31.23;;
13445;SDS011;6795;51.232;3.764;2023-12-07T09:38:50;62.77;;;30.97;;
13445;SDS011;6795;51.232;3.764;2023-12-07T09:41:18;64.87;;;31.63;;
13445;SDS011;6795;51.232;3.764;2023-12-07T09:43:48;64.13;;;32.10;;
13445;SDS011;6795;51.232;3.764;2023-12-07T09:46:17;66.87;;;31.53;;
13445;SDS011;6795;51.232;3.764;2023-12-07T09:48:46;54.70;;;29.87;;
13445;SDS011;6795;51.232;3.764;2023-12-07T09:51:17;59.80;;;31.83;;
13445;SDS011;6795;51.232;3.764;2023-12-07T09:53:46;58.93;;;31.67;;
13445;SDS011;6795;51.232;3.764;2023-12-07T09:56:18;63.93;;;27.80;;
13445;SDS011;6795;51.232;3.764;2023-12-07T09:58:47;57.53;;;29.00;;
13445;SDS011;6795;51.232;3.764;2023-12-07T10:01:15;53.03;;;25.20;;
13445;SDS011;6795;51.232;3.764;2023-12-07T10:03:45;53.40;;;29.07;;
13445;SDS011;6795;51.232;3.764;2023-12-07T10:06:15;45.70;;;24.97;;
13445;SDS011;6795;51.232;3.764;2023-12-07T10:08:43;46.17;;;24.77;;
13445;SDS011;6795;51.232;3.764;2023-12-07T10:11:14;50.07;;;27.23;;
13445;SDS011;6795;51.232;3.764;2023-12-07T10:13:44;45.13;;;27.03;;
13445;SDS011;6795;51.232;3.764;2023-12-07T10:16:13;48.03;;;29.10;;
13445;SDS011;6795;51.232;3.764;2023-12-07T10:18:44;51.00;;;25.63;;
13445;SDS011;6795;51.232;3.764;2023-12-07T10:21:14;53.07;;;25.67;;
13445;SDS011;6795;51.232;3.764;2023-12-07T10:23:42;51.83;;;26.83;;
13445;SDS011;6795;51.232;3.764;2023-12-07T10:26:15;50.43;;;22.47;;
13445;SDS011;6795;51.232;3.764;2023-12-07T10:28:48;55.67;;;26.83;;
13445;SDS011;6795;51.232;3.764;2023-12-07T10:31:20;49.77;;;25.87;;
13445;SDS011;6795;51.232;3.764;2023-12-07T10:33:51;43.40;;;23.67;;
13445;SDS011;6795;51.232;3.764;2023-12-07T10:36:20;47.50;;;21.63;;
13445;SDS011;6795;51.232;3.764;2023-12-07T10:38:49;44.17;;;23.20;;
13445;SDS011;6795;51.232;3.764;2023-12-07T10:41:18;47.80;;;23.80;;
13445;SDS011;6795;51.232;3.764;2023-12-07T10:43:49;48.67;;;24.70;;
13445;SDS011;6795;51.232;3.764;2023-12-07T10:46:20;57.07;;;24.87;;
13445;SDS011;6795;51.232;3.764;2023-12-07T10:48:51;49.70;;;24.10;;
13445;SDS011;6795;51.232;3.764;2023-12-07T10:51:29;41.87;;;21.60;;
13445;SDS011;6795;51.232;3.764;2023-12-07T10:53:59;53.23;;;25.53;;
13445;SDS011;6795;51.232;3.764;2023-12-07T10:56:32;46.93;;;23.67;;
13445;SDS011;6795;51.232;3.764;2023-12-07T10:59:07;45.10;;;22.83;;
13445;SDS011;6795;51.232;3.764;2023-12-07T11:01:45;49.43;;;25.20;;
13445;SDS011;6795;51.232;3.764;2023-12-07T11:04:17;46.23;;;22.70;;
13445;SDS011;6795;51.232;3.764;2023-12-07T11:06:48;51.60;;;27.43;;
13445;SDS011;6795;51.232;3.764;2023-12-07T11:09:19;51.57;;;27.07;;
13445;SDS011;6795;51.232;3.764;2023-12-07T11:11:56;38.67;;;26.37;;
13445;SDS011;6795;51.232;3.764;2023-12-07T11:14:28;44.60;;;28.93;;
13445;SDS011;6795;51.232;3.764;2023-12-07T11:16:57;48.90;;;25.43;;
13445;SDS011;6795;51.232;3.764;2023-12-07T11:22:14;45.17;;;20.43;;
13445;SDS011;6795;51.232;3.764;2023-12-07T11:24:52;36.37;;;21.10;;
13445;SDS011;6795;51.232;3.764;2023-12-07T11:27:24;32.40;;;19.43;;
13445;SDS011;6795;51.232;3.764;2023-12-07T11:29:53;30.60;;;18.00;;
13445;SDS011;6795;51.232;3.764;2023-12-07T11:32:21;36.00;;;18.40;;
13445;SDS011;6795;51.232;3.764;2023-12-07T11:34:58;34.03;;;19.50;;
13445;SDS011;6795;51.232;3.764;2023-12-07T11:40:30;33.57;;;17.77;;
13445;SDS011;6795;51.232;3.764;2023-12-07T11:43:00;32.40;;;17.40;;
13445;SDS011;6795;51.232;3.764;2023-12-07T11:45:38;34.37;;;16.90;;
13445;SDS011;6795;51.232;3.764;2023-12-07T11:48:08;31.00;;;17.67;;
13445;SDS011;6795;51.232;3.764;2023-12-07T11:50:54;34.50;;;16.83;;
13445;SDS011;6795;51.232;3.764;2023-12-07T11:53:26;27.37;;;16.70;;
13445;SDS011;6795;51.232;3.764;2023-12-07T11:55:56;27.83;;;16.37;;
13445;SDS011;6795;51.232;3.764;2023-12-07T11:58:27;26.17;;;18.37;;
13445;SDS011;6795;51.232;3.764;2023-12-07T12:01:02;25.57;;;13.67;;
13445;SDS011;6795;51.232;3.764;2023-12-07T12:03:32;26.27;;;15.73;;
13445;SDS011;6795;51.232;3.764;2023-12-07T12:06:03;24.83;;;14.53;;
13445;SDS011;6795;51.232;3.764;2023-12-07T12:08:35;21.73;;;15.50;;
13445;SDS011;6795;51.232;3.764;2023-12-07T12:11:03;22.83;;;14.57;;
13445;SDS011;6795;51.232;3.764;2023-12-07T12:13:33;26.60;;;15.10;;
13445;SDS011;6795;51.232;3.764;2023-12-07T12:16:03;24.50;;;14.30;;
13445;SDS011;6795;51.232;3.764;2023-12-07T12:18:33;20.03;;;13.93;;
13445;SDS011;6795;51.232;3.764;2023-12-07T12:21:05;21.43;;;14.47;;
13445;SDS011;6795;51.232;3.764;2023-12-07T12:23:35;16.60;;;12.17;;
13445;SDS011;6795;51.232;3.764;2023-12-07T12:26:05;20.40;;;12.97;;
13445;SDS011;6795;51.232;3.764;2023-12-07T12:28:34;21.90;;;11.20;;
13445;SDS011;6795;51.232;3.764;2023-12-07T12:31:09;16.80;;;10.90;;
13445;SDS011;6795;51.232;3.764;2023-12-07T12:33:39;18.93;;;12.03;;
13445;SDS011;6795;51.232;3.764;2023-12-07T12:36:09;21.27;;;11.50;;
13445;SDS011;6795;51.232;3.764;2023-12-07T12:38:38;19.37;;;11.40;;
13445;SDS011;6795;51.232;3.764;2023-12-07T12:41:10;19.40;;;9.17;;
13445;SDS011;6795;51.232;3.764;2023-12-07T12:43:39;16.10;;;9.97;;
13445;SDS011;6795;51.232;3.764;2023-12-07T12:46:09;17.03;;;9.07;;
13445;SDS011;6795;51.232;3.764;2023-12-07T12:48:52;14.63;;;9.20;;
13445;SDS011;6795;51.232;3.764;2023-12-07T12:51:24;16.80;;;8.70;;
13445;SDS011;6795;51.232;3.764;2023-12-07T12:53:54;12.53;;;7.77;;
13445;SDS011;6795;51.232;3.764;2023-12-07T12:56:25;10.97;;;6.80;;
13445;SDS011;6795;51.232;3.764;2023-12-07T12:58:55;12.70;;;6.53;;
13445;SDS011;6795;51.232;3.764;2023-12-07T13:01:30;10.40;;;6.40;;
13445;SDS011;6795;51.232;3.764;2023-12-07T13:04:00;11.53;;;7.60;;
13445;SDS011;6795;51.232;3.764;2023-12-07T13:06:29;12.90;;;7.53;;
13445;SDS011;6795;51.232;3.764;2023-12-07T13:08:58;8.50;;;6.67;;
13445;SDS011;6795;51.232;3.764;2023-12-07T13:11:26;9.90;;;6.63;;
13445;SDS011;6795;51.232;3.764;2023-12-07T13:13:55;11.63;;;5.77;;
13445;SDS011;6795;51.232;3.764;2023-12-07T13:16:24;12.53;;;6.87;;
13445;SDS011;6795;51.232;3.764;2023-12-07T13:18:53;9.73;;;6.03;;
13445;SDS011;6795;51.232;3.764;2023-12-07T13:21:22;12.20;;;5.67;;
13445;SDS011;6795;51.232;3.764;2023-12-07T13:23:51;14.33;;;6.00;;
13445;SDS011;6795;51.232;3.764;2023-12-07T13:26:20;9.83;;;5.53;;
13445;SDS011;6795;51.232;3.764;2023-12-07T13:28:50;8.57;;;5.47;;
13445;SDS011;6795;51.232;3.764;2023-12-07T13:31:19;7.23;;;5.30;;
13445;SDS011;6795;51.232;3.764;2023-12-07T13:33:47;8.93;;;5.60;;
13445;SDS011;6795;51.232;3.764;2023-12-07T13:36:22;6.97;;;4.97;;
13445;SDS011;6795;51.232;3.764;2023-12-07T13:38:55;8.17;;;4.73;;
13445;SDS011;6795;51.232;3.764;2023-12-07T13:41:40;8.23;;;4.13;;
13445;SDS011;6795;51.232;3.764;2023-12-07T13:44:08;7.47;;;4.37;;
13445;SDS011;6795;51.232;3.764;2023-12-07T13:46:42;7.07;;;4.40;;
13445;SDS011;6795;51.232;3.764;2023-12-07T13:49:13;16.80;;;5.17;;
13445;SDS011;6795;51.232;3.764;2023-12-07T13:51:54;7.40;;;4.37;;
13445;SDS011;6795;51.232;3.764;2023-12-07T13:54:23;7.03;;;4.13;;
13445;SDS011;6795;51.232;3.764;2023-12-07T13:57:11;4.53;;;3.80;;
13445;SDS011;6795;51.232;3.764;2023-12-07T13:59:40;7.43;;;4.40;;
13445;SDS011;6795;51.232;3.764;2023-12-07T14:02:09;9.60;;;4.37;;
13445;SDS011;6795;51.232;3.764;2023-12-07T14:04:38;5.70;;;3.67;;
13445;SDS011;6795;51.232;3.764;2023-12-07T14:07:07;9.33;;;4.47;;
13445;SDS011;6795;51.232;3.764;2023-12-07T14:09:39;7.63;;;4.10;;
13445;SDS011;6795;51.232;3.764;2023-12-07T14:12:23;7.73;;;3.83;;
13445;SDS011;6795;51.232;3.764;2023-12-07T14:14:52;3.83;;;3.37;;
13445;SDS011;6795;51.232;3.764;2023-12-07T14:17:22;4.60;;;3.67;;
13445;SDS011;6795;51.232;3.764;2023-12-07T14:19:53;5.63;;;3.47;;
13445;SDS011;6795;51.232;3.764;2023-12-07T14:22:41;4.43;;;3.67;;
13445;SDS011;6795;51.232;3.764;2023-12-07T14:25:10;5.07;;;3.83;;
13445;SDS011;6795;51.232;3.764;2023-12-07T14:27:39;8.00;;;3.43;;
13445;SDS011;6795;51.232;3.764;2023-12-07T14:30:08;7.03;;;4.00;;
13445;SDS011;6795;51.232;3.764;2023-12-07T14:32:38;6.00;;;3.77;;
13445;SDS011;6795;51.232;3.764;2023-12-07T14:35:08;6.67;;;3.70;;
13445;SDS011;6795;51.232;3.764;2023-12-07T14:37:36;7.70;;;3.93;;
13445;SDS011;6795;51.232;3.764;2023-12-07T14:40:07;5.23;;;3.93;;
13445;SDS011;6795;51.232;3.764;2023-12-07T14:42:37;6.83;;;3.67;;
13445;SDS011;6795;51.232;3.764;2023-12-07T14:45:06;4.63;;;3.87;;
13445;SDS011;6795;51.232;3.764;2023-12-07T14:47:36;7.10;;;3.33;;
13445;SDS011;6795;51.232;3.764;2023-12-07T14:50:05;6.70;;;4.20;;
13445;SDS011;6795;51.232;3.764;2023-12-07T14:52:34;6.37;;;3.83;;
13445;SDS011;6795;51.232;3.764;2023-12-07T14:55:02;6.47;;;3.80;;
13445;SDS011;6795;51.232;3.764;2023-12-07T14:57:31;6.57;;;3.33;;
13445;SDS011;6795;51.232;3.764;2023-12-07T15:00:01;8.37;;;4.07;;
13445;SDS011;6795;51.232;3.764;2023-12-07T15:02:31;7.87;;;3.57;;
13445;SDS011;6795;51.232;3.764;2023-12-07T15:04:59;7.27;;;3.53;;
13445;SDS011;6795;51.232;3.764;2023-12-07T15:07:28;9.83;;;4.50;;
13445;SDS011;6795;51.232;3.764;2023-12-07T15:09:56;5.13;;;4.43;;
13445;SDS011;6795;51.232;3.764;2023-12-07T15:12:24;11.20;;;5.17;;
13445;SDS011;6795;51.232;3.764;2023-12-07T15:14:55;8.40;;;4.77;;
13445;SDS011;6795;51.232;3.764;2023-12-07T15:17:25;6.37;;;5.17;;
13445;SDS011;6795;51.232;3.764;2023-12-07T15:19:54;9.20;;;4.87;;
13445;SDS011;6795;51.232;3.764;2023-12-07T15:22:23;7.43;;;3.90;;
13445;SDS011;6795;51.232;3.764;2023-12-07T15:24:52;8.27;;;5.23;;
13445;SDS011;6795;51.232;3.764;2023-12-07T15:27:21;8.33;;;4.67;;
13445;SDS011;6795;51.232;3.764;2023-12-07T15:29:51;8.03;;;3.70;;
13445;SDS011;6795;51.232;3.764;2023-12-07T15:32:20;5.57;;;3.33;;